Time;durP1;ratioP1;P1;durP2;ratioP2;P2;SDS_P1;SDS_P2;PMS_P1;PMS_P2;Temp;Humidity;BMP_temperature;BMP_pressure;BME280_temperature;BME280_humidity;BME280_pressure;Samples;Min_cycle;Max_cycle;Signal;HPM_P1;HPM_P2
2023/06/07 00:01:43;;;;;;;0.10;0.10;;;17.80;99.90;;;;;;5044533;28;20182;-80
2023/06/07 00:04:11;;;;;;;0.10;0.10;;;17.80;99.90;;;;;;5045366;28;20204;-80
2023/06/07 00:06:39;;;;;;;0.10;0.10;;;17.80;99.90;;;;;;5045426;28;20217;-80
2023/06/07 00:09:08;;;;;;;0.10;0.10;;;17.90;99.90;;;;;;5046634;28;20915;-80
2023/06/07 00:11:35;;;;;;;0.10;0.10;;;18.00;99.90;;;;;;5045240;28;20190;-80
2023/06/07 00:14:01;;;;;;;0.10;0.10;;;18.10;99.90;;;;;;5046708;28;20671;-80
2023/06/07 00:16:27;;;;;;;0.10;0.10;;;18.20;99.90;;;;;;5046208;28;20236;-80
2023/06/07 00:18:53;;;;;;;0.10;0.10;;;18.20;99.90;;;;;;5045420;28;20550;-80
2023/06/07 00:21:20;;;;;;;0.10;0.10;;;18.30;99.90;;;;;;5045387;28;20672;-80
2023/06/07 00:23:49;;;;;;;0.10;0.10;;;18.40;99.90;;;;;;5044863;28;20681;-80
2023/06/07 00:26:14;;;;;;;0.10;0.10;;;18.40;99.90;;;;;;5046391;28;20201;-80
2023/06/07 00:28:40;;;;;;;0.10;0.10;;;18.40;99.90;;;;;;5044944;28;21151;-80
2023/06/07 00:31:05;;;;;;;0.10;0.10;;;18.50;99.90;;;;;;5044304;28;20238;-80
2023/06/07 00:33:31;;;;;;;0.10;0.10;;;18.50;99.90;;;;;;5044984;28;20225;-80
2023/06/07 00:35:57;;;;;;;0.10;0.10;;;18.40;99.90;;;;;;5045105;28;20206;-80
2023/06/07 00:38:23;;;;;;;0.10;0.10;;;18.40;99.90;;;;;;5044678;28;20182;-80
2023/06/07 00:40:49;;;;;;;0.10;0.10;;;18.50;99.90;;;;;;5044521;28;20174;-80
2023/06/07 00:43:15;;;;;;;0.10;0.10;;;18.40;99.90;;;;;;5044454;28;20232;-80
2023/06/07 00:45:41;;;;;;;0.10;0.10;;;18.50;99.90;;;;;;5046214;28;20220;-80
2023/06/07 00:48:07;;;;;;;0.10;0.10;;;18.60;99.90;;;;;;5046302;28;20186;-80
2023/06/07 00:50:33;;;;;;;0.10;0.10;;;18.70;99.90;;;;;;5044169;28;20950;-80
2023/06/07 00:52:59;;;;;;;0.10;0.10;;;18.70;99.90;;;;;;5042475;28;20189;-80
2023/06/07 00:55:26;;;;;;;0.10;0.10;;;18.70;99.90;;;;;;5043597;28;20210;-80
2023/06/07 00:57:52;;;;;;;0.10;0.10;;;18.80;99.90;;;;;;5046072;28;20595;-80
2023/06/07 01:00:18;;;;;;;0.10;0.10;;;18.70;99.90;;;;;;5045779;28;20176;-80
2023/06/07 01:02:46;;;;;;;0.10;0.10;;;18.70;99.90;;;;;;5043622;28;20731;-80
2023/06/07 01:05:12;;;;;;;0.10;0.10;;;18.70;99.90;;;;;;5045581;28;20964;-80
2023/06/07 01:07:38;;;;;;;0.10;0.10;;;18.70;99.90;;;;;;5044483;28;20193;-80
2023/06/07 01:10:05;;;;;;;0.10;0.10;;;18.70;99.90;;;;;;5045636;28;20173;-80
2023/06/07 01:12:34;;;;;;;0.10;0.10;;;18.60;99.90;;;;;;5043320;28;20196;-80
2023/06/07 01:15:00;;;;;;;0.10;0.10;;;18.80;99.90;;;;;;5043479;28;20329;-80
2023/06/07 01:17:28;;;;;;;0.10;0.10;;;18.80;99.90;;;;;;5045593;28;20202;-80
2023/06/07 01:19:57;;;;;;;0.10;0.10;;;18.80;99.90;;;;;;5045119;28;20174;-80
2023/06/07 01:22:27;;;;;;;0.10;0.10;;;18.80;99.90;;;;;;5045324;28;20667;-80
2023/06/07 01:24:56;;;;;;;0.10;0.10;;;18.80;99.90;;;;;;5044938;28;20182;-80
2023/06/07 01:27:27;;;;;;;0.10;0.10;;;18.80;99.90;;;;;;5043871;28;20240;-79
2023/06/07 01:29:56;;;;;;;0.10;0.10;;;18.70;99.90;;;;;;5044440;28;20178;-80
2023/06/07 01:32:23;;;;;;;0.10;0.10;;;18.60;99.90;;;;;;5043270;28;20219;-80
2023/06/07 01:34:51;;;;;;;0.10;0.10;;;18.60;99.90;;;;;;5045055;28;20260;-80
2023/06/07 01:37:17;;;;;;;0.10;0.10;;;18.60;99.90;;;;;;5043566;28;20205;-80
2023/06/07 01:39:44;;;;;;;0.10;0.10;;;18.50;99.90;;;;;;5043974;28;20235;-80
2023/06/07 01:42:10;;;;;;;0.10;0.10;;;18.50;99.90;;;;;;5044825;28;20573;-80
2023/06/07 01:44:38;;;;;;;0.10;0.10;;;18.50;99.90;;;;;;5044012;28;20219;-80
2023/06/07 01:47:05;;;;;;;0.10;0.10;;;18.40;99.90;;;;;;5043679;28;20212;-80
2023/06/07 01:49:31;;;;;;;0.10;0.10;;;18.40;99.90;;;;;;5044657;28;20534;-80
2023/06/07 01:51:56;;;;;;;0.10;0.10;;;18.40;99.90;;;;;;5043721;28;20185;-80
2023/06/07 01:54:22;;;;;;;0.10;0.10;;;18.30;99.90;;;;;;5044035;28;20203;-80
2023/06/07 01:56:57;;;;;;;0.10;0.10;;;18.30;99.90;;;;;;5045078;28;20480;-80
2023/06/07 01:59:38;;;;;;;0.10;0.10;;;18.30;99.90;;;;;;5043744;28;20181;-80
2023/06/07 02:02:17;;;;;;;0.10;0.10;;;18.30;99.90;;;;;;5043259;28;20182;-80
2023/06/07 02:04:48;;;;;;;0.07;0.07;;;18.30;99.90;;;;;;5043129;28;20207;-80
2023/06/07 02:07:23;;;;;;;0.10;0.10;;;18.40;99.90;;;;;;5043864;28;20635;-80
2023/06/07 02:09:50;;;;;;;0.10;0.10;;;18.40;99.90;;;;;;5043882;28;20185;-80
2023/06/07 02:12:18;;;;;;;0.10;0.10;;;18.40;99.90;;;;;;5044325;28;20522;-80
2023/06/07 02:14:46;;;;;;;0.10;0.10;;;18.50;99.90;;;;;;5043362;28;20686;-80
2023/06/07 02:17:12;;;;;;;0.10;0.10;;;18.50;99.90;;;;;;5043260;28;20245;-80
2023/06/07 02:19:37;;;;;;;0.10;0.10;;;18.50;99.90;;;;;;5043614;28;20212;-80
2023/06/07 02:22:03;;;;;;;0.10;0.10;;;18.50;99.90;;;;;;5044438;28;20185;-80
2023/06/07 02:24:29;;;;;;;0.10;0.10;;;18.50;99.90;;;;;;5043421;28;20670;-80
2023/06/07 02:26:55;;;;;;;0.10;0.10;;;18.50;99.90;;;;;;5047642;28;20247;-80
2023/06/07 02:29:21;;;;;;;0.10;0.10;;;18.40;99.90;;;;;;5047138;28;20186;-80
2023/06/07 02:31:50;;;;;;;0.10;0.10;;;18.30;99.90;;;;;;5048521;28;20240;-80
2023/06/07 02:34:16;;;;;;;0.10;0.10;;;18.20;99.90;;;;;;5046698;28;20204;-80
2023/06/07 02:36:42;;;;;;;0.10;0.10;;;18.20;99.90;;;;;;5046874;28;20204;-80
2023/06/07 02:39:08;;;;;;;0.10;0.10;;;18.20;99.90;;;;;;5046854;28;20178;-80
2023/06/07 02:41:34;;;;;;;0.10;0.10;;;18.00;99.90;;;;;;5046032;28;20251;-80
2023/06/07 02:44:00;;;;;;;0.10;0.10;;;17.80;99.90;;;;;;5046987;28;20187;-80
2023/06/07 02:46:25;;;;;;;0.10;0.10;;;17.70;99.90;;;;;;5048395;28;20202;-80
2023/06/07 02:48:51;;;;;;;0.10;0.10;;;17.70;99.90;;;;;;5047123;28;20193;-80
2023/06/07 02:51:16;;;;;;;0.10;0.10;;;17.70;99.90;;;;;;5047125;28;20583;-80
2023/06/07 02:53:44;;;;;;;0.10;0.10;;;17.70;99.90;;;;;;5047669;28;20205;-80
2023/06/07 02:56:11;;;;;;;0.10;0.10;;;17.50;99.90;;;;;;5048935;28;20202;-80
2023/06/07 02:58:37;;;;;;;0.10;0.10;;;17.30;99.90;;;;;;5048095;28;20196;-80
2023/06/07 03:01:07;;;;;;;0.10;0.10;;;17.20;99.90;;;;;;5048024;28;20186;-80
2023/06/07 03:03:35;;;;;;;0.10;0.10;;;17.10;99.90;;;;;;5049345;28;20196;-80
2023/06/07 03:06:04;;;;;;;0.10;0.10;;;17.10;99.90;;;;;;5048665;28;20249;-80
2023/06/07 03:08:30;;;;;;;0.10;0.10;;;17.10;99.90;;;;;;5047270;28;20190;-80
2023/06/07 03:10:55;;;;;;;0.10;0.10;;;17.00;99.90;;;;;;5046885;28;20186;-80
2023/06/07 03:13:21;;;;;;;0.10;0.10;;;17.00;99.90;;;;;;5047608;28;20212;-80
2023/06/07 03:15:47;;;;;;;0.10;0.10;;;16.90;99.90;;;;;;5047764;28;20217;-80
2023/06/07 03:18:15;;;;;;;0.10;0.10;;;16.80;99.90;;;;;;5047528;28;20548;-80
2023/06/07 03:20:41;;;;;;;0.10;0.10;;;16.80;99.90;;;;;;5045960;28;20200;-80
2023/06/07 03:23:07;;;;;;;0.10;0.10;;;16.70;99.90;;;;;;5046097;28;20178;-80
2023/06/07 03:25:33;;;;;;;0.10;0.10;;;16.70;99.90;;;;;;5046409;28;20750;-80
2023/06/07 03:27:59;;;;;;;0.10;0.10;;;16.60;99.90;;;;;;5045990;28;20191;-80
2023/06/07 03:30:24;;;;;;;0.10;0.10;;;16.60;99.90;;;;;;5046011;28;20647;-80
2023/06/07 03:32:50;;;;;;;0.10;0.10;;;16.70;99.90;;;;;;5046831;28;20216;-80
2023/06/07 03:35:16;;;;;;;0.10;0.10;;;16.70;99.90;;;;;;5047357;28;20209;-80
2023/06/07 03:37:42;;;;;;;0.10;0.10;;;16.70;99.90;;;;;;5044984;28;20182;-79
2023/06/07 03:40:08;;;;;;;0.10;0.10;;;16.80;99.90;;;;;;5047309;28;20220;-80
2023/06/07 03:42:34;;;;;;;0.10;0.10;;;16.80;99.90;;;;;;5044693;28;20178;-80
2023/06/07 03:44:59;;;;;;;0.10;0.10;;;16.80;99.90;;;;;;5045213;28;20232;-80
2023/06/07 03:47:25;;;;;;;0.10;0.10;;;16.80;99.90;;;;;;5044496;28;20228;-80
2023/06/07 03:49:50;;;;;;;0.10;0.10;;;16.80;99.90;;;;;;5048613;28;20638;-80
2023/06/07 03:52:16;;;;;;;0.10;0.10;;;16.90;99.90;;;;;;5048545;28;20584;-80
2023/06/07 03:54:41;;;;;;;0.10;0.10;;;17.00;99.90;;;;;;5046835;28;20202;-80
2023/06/07 03:57:07;;;;;;;0.10;0.10;;;17.00;99.90;;;;;;5047075;28;20292;-79
2023/06/07 03:59:32;;;;;;;0.10;0.10;;;17.20;99.90;;;;;;5045998;28;20189;-80
2023/06/07 04:01:58;;;;;;;0.10;0.10;;;17.20;99.90;;;;;;5047864;28;21224;-79
2023/06/07 04:04:27;;;;;;;0.10;0.10;;;17.20;99.90;;;;;;5046966;28;20192;-80
2023/06/07 04:06:54;;;;;;;0.10;0.10;;;17.20;99.90;;;;;;5046141;28;20645;-80
2023/06/07 04:09:20;;;;;;;0.10;0.10;;;17.30;99.90;;;;;;5046273;28;20197;-80
2023/06/07 04:11:46;;;;;;;0.10;0.10;;;17.40;99.90;;;;;;5045938;28;20182;-80
2023/06/07 04:14:12;;;;;;;0.10;0.10;;;17.50;99.90;;;;;;5045645;28;20201;-80
2023/06/07 04:16:37;;;;;;;0.10;0.10;;;17.60;99.90;;;;;;5045596;28;20216;-80
2023/06/07 04:19:03;;;;;;;0.10;0.10;;;17.70;99.90;;;;;;5046177;28;20663;-80
2023/06/07 04:21:28;;;;;;;0.10;0.10;;;17.80;99.90;;;;;;5045055;28;20228;-80
2023/06/07 04:23:54;;;;;;;0.10;0.10;;;17.70;99.90;;;;;;5045436;28;20202;-80
2023/06/07 04:26:21;;;;;;;0.10;0.10;;;17.70;99.90;;;;;;5046510;28;20229;-80
2023/06/07 04:28:49;;;;;;;0.10;0.10;;;17.70;99.90;;;;;;5045443;28;20643;-80
2023/06/07 04:31:15;;;;;;;0.10;0.10;;;17.60;99.90;;;;;;5044946;28;20239;-80
2023/06/07 04:33:42;;;;;;;0.10;0.10;;;17.60;99.90;;;;;;5045057;28;20201;-80
2023/06/07 04:36:08;;;;;;;0.10;0.10;;;17.70;99.90;;;;;;5045622;28;20670;-80
2023/06/07 04:38:34;;;;;;;0.10;0.10;;;17.80;99.90;;;;;;5046281;28;20196;-80
2023/06/07 04:41:05;;;;;;;0.10;0.10;;;17.80;99.90;;;;;;5046298;28;20181;-80
2023/06/07 04:43:35;;;;;;;0.10;0.10;;;17.80;99.90;;;;;;5044905;28;20273;-80
2023/06/07 04:46:01;;;;;;;0.10;0.10;;;17.90;99.90;;;;;;5046788;28;20221;-80
2023/06/07 04:48:27;;;;;;;0.10;0.10;;;18.00;99.90;;;;;;5043294;28;20193;-80
2023/06/07 04:51:03;;;;;;;0.10;0.10;;;18.00;99.90;;;;;;5045808;28;20242;-79
2023/06/07 04:53:28;;;;;;;0.10;0.10;;;18.10;99.90;;;;;;5046122;28;20251;-80
2023/06/07 04:55:56;;;;;;;0.10;0.10;;;18.20;99.90;;;;;;5045106;28;20197;-80
2023/06/07 04:58:21;;;;;;;0.10;0.10;;;18.40;99.90;;;;;;5045658;28;20201;-80
2023/06/07 05:00:51;;;;;;;0.10;0.10;;;18.50;99.90;;;;;;5045560;28;20180;-80
2023/06/07 05:03:21;;;;;;;0.10;0.10;;;18.60;99.90;;;;;;5045145;28;20178;-80
2023/06/07 05:05:48;;;;;;;0.10;0.10;;;18.70;99.90;;;;;;5045610;28;20218;-80
2023/06/07 05:08:14;;;;;;;0.10;0.10;;;18.70;99.90;;;;;;5045110;28;20189;-80
2023/06/07 05:10:40;;;;;;;0.10;0.10;;;18.80;99.90;;;;;;5046411;28;20179;-80
2023/06/07 05:13:06;;;;;;;0.10;0.10;;;18.90;99.90;;;;;;5044791;28;20909;-80
2023/06/07 05:15:31;;;;;;;0.10;0.10;;;18.90;99.90;;;;;;5044415;28;20232;-80
2023/06/07 05:17:58;;;;;;;0.10;0.10;;;19.00;99.90;;;;;;5046139;28;20204;-80
2023/06/07 05:20:27;;;;;;;0.10;0.10;;;19.10;99.90;;;;;;5045194;28;20188;-80
2023/06/07 05:22:53;;;;;;;0.10;0.10;;;19.20;99.90;;;;;;5043867;28;20527;-79
2023/06/07 05:25:18;;;;;;;0.10;0.10;;;19.30;99.90;;;;;;5045421;28;20200;-80
2023/06/07 05:27:44;;;;;;;0.10;0.10;;;19.30;99.90;;;;;;5044301;28;20189;-80
2023/06/07 05:30:10;;;;;;;0.10;0.10;;;19.50;99.90;;;;;;5044594;28;20235;-80
2023/06/07 05:32:36;;;;;;;0.10;0.10;;;19.50;99.90;;;;;;5043790;28;20213;-80
2023/06/07 05:35:03;;;;;;;0.10;0.10;;;19.60;99.90;;;;;;5044453;28;20204;-80
2023/06/07 05:37:30;;;;;;;0.10;0.10;;;19.70;99.90;;;;;;5044071;28;20558;-80
2023/06/07 05:39:56;;;;;;;0.10;0.10;;;19.80;99.90;;;;;;5044113;28;20304;-80
2023/06/07 05:42:22;;;;;;;0.10;0.10;;;19.80;99.90;;;;;;5043734;28;20181;-80
2023/06/07 05:44:49;;;;;;;0.10;0.10;;;19.90;99.90;;;;;;5046065;28;21092;-80
2023/06/07 05:47:15;;;;;;;0.10;0.10;;;19.90;99.90;;;;;;5045784;28;20229;-80
2023/06/07 05:49:45;;;;;;;0.10;0.10;;;20.00;99.90;;;;;;5044196;28;20192;-80
2023/06/07 05:52:13;;;;;;;0.10;0.10;;;20.00;99.90;;;;;;5044272;28;20193;-80
2023/06/07 05:54:40;;;;;;;0.10;0.10;;;20.10;99.90;;;;;;5043667;28;20219;-80
2023/06/07 05:57:06;;;;;;;0.10;0.10;;;20.10;99.90;;;;;;5043402;28;20201;-80
2023/06/07 05:59:31;;;;;;;0.10;0.10;;;20.10;99.90;;;;;;5045307;28;20192;-80
2023/06/07 06:01:57;;;;;;;0.10;0.10;;;20.20;99.90;;;;;;5048474;28;20189;-80
2023/06/07 06:04:22;;;;;;;0.10;0.10;;;20.20;99.90;;;;;;5050230;28;20304;-80
2023/06/07 06:06:48;;;;;;;0.10;0.10;;;20.30;99.90;;;;;;5048689;28;20209;-80
2023/06/07 06:09:14;;;;;;;0.10;0.10;;;20.10;99.90;;;;;;5048403;28;20191;-80
2023/06/07 06:11:39;;;;;;;0.10;0.10;;;20.20;99.90;;;;;;5048253;28;20699;-80
2023/06/07 06:14:05;;;;;;;0.10;0.10;;;20.40;99.90;;;;;;5049142;28;20251;-80
2023/06/07 06:16:30;;;;;;;0.10;0.10;;;20.40;99.90;;;;;;5049491;28;20206;-80
2023/06/07 06:18:56;;;;;;;0.10;0.10;;;20.80;99.90;;;;;;5049373;28;20236;-80
2023/06/07 06:21:21;;;;;;;0.10;0.10;;;20.90;99.90;;;;;;5047797;28;20201;-80
2023/06/07 06:23:47;;;;;;;0.10;0.10;;;21.30;99.90;;;;;;5047521;28;20185;-80
2023/06/07 06:26:12;;;;;;;0.10;0.10;;;21.50;99.90;;;;;;5048868;28;20333;-80
2023/06/07 06:28:38;;;;;;;0.10;0.10;;;21.50;99.90;;;;;;5047459;28;20663;-80
2023/06/07 06:31:05;;;;;;;0.10;0.10;;;21.70;99.90;;;;;;5047456;28;20862;-80
2023/06/07 06:33:30;;;;;;;0.10;0.10;;;21.80;99.90;;;;;;5048575;28;20296;-80
2023/06/07 06:35:57;;;;;;;0.10;0.10;;;21.90;99.90;;;;;;5047023;28;20695;-80
2023/06/07 06:38:22;;;;;;;0.10;0.10;;;22.00;99.90;;;;;;5047761;28;20173;-80
2023/06/07 06:40:48;;;;;;;0.10;0.10;;;22.00;99.90;;;;;;5048115;28;20698;-81
2023/06/07 06:43:13;;;;;;;0.10;0.10;;;21.50;99.90;;;;;;5048593;28;20261;-80
2023/06/07 06:45:39;;;;;;;0.10;0.10;;;21.70;99.90;;;;;;5048326;28;20744;-80
2023/06/07 06:48:05;;;;;;;0.10;0.10;;;21.70;99.90;;;;;;5048675;28;20645;-80
2023/06/07 06:50:30;;;;;;;0.10;0.10;;;21.80;99.90;;;;;;5045583;28;20200;-80
2023/06/07 06:52:56;;;;;;;0.10;0.10;;;21.80;99.90;;;;;;5046681;28;20182;-80
2023/06/07 06:55:22;;;;;;;0.10;0.10;;;21.40;99.90;;;;;;5047317;28;20194;-80
2023/06/07 06:57:47;;;;;;;0.10;0.10;;;21.50;99.90;;;;;;5048811;28;20199;-80
2023/06/07 07:00:13;;;;;;;0.10;0.10;;;21.40;99.90;;;;;;5048439;28;20229;-80
2023/06/07 07:02:39;;;;;;;0.10;0.10;;;21.50;99.90;;;;;;5046475;28;20185;-80
2023/06/07 07:05:09;;;;;;;0.10;0.10;;;21.60;99.90;;;;;;5048562;28;20608;-80
2023/06/07 07:07:34;;;;;;;0.10;0.10;;;21.90;99.90;;;;;;5047071;28;20178;-80
2023/06/07 07:10:00;;;;;;;0.10;0.10;;;22.00;99.90;;;;;;5048853;28;20260;-80
2023/06/07 07:12:26;;;;;;;0.60;0.60;;;21.80;99.90;;;;;;5047864;28;20182;-80
2023/06/07 07:14:52;;;;;;;0.10;0.10;;;22.00;99.90;;;;;;5048224;28;20262;-80
2023/06/07 07:17:19;;;;;;;0.10;0.10;;;21.80;99.90;;;;;;5046881;28;20202;-80
2023/06/07 07:19:44;;;;;;;0.10;0.10;;;21.80;99.90;;;;;;5046205;28;20182;-81
2023/06/07 07:22:10;;;;;;;0.10;0.10;;;22.00;99.90;;;;;;5046546;28;20185;-80
2023/06/07 07:24:36;;;;;;;0.10;0.10;;;21.90;99.90;;;;;;5046314;28;20178;-80
2023/06/07 07:27:01;;;;;;;0.10;0.10;;;22.50;99.90;;;;;;5047900;28;20206;-80
2023/06/07 07:29:27;;;;;;;0.10;0.10;;;22.50;99.90;;;;;;5047220;28;20200;-80
2023/06/07 07:31:52;;;;;;;0.10;0.10;;;22.90;99.90;;;;;;5046484;28;20193;-80
2023/06/07 07:34:18;;;;;;;0.10;0.10;;;23.20;99.90;;;;;;5048525;28;20205;-80
2023/06/07 07:36:44;;;;;;;0.10;0.10;;;22.40;99.90;;;;;;5047226;28;20209;-80
2023/06/07 07:39:11;;;;;;;0.10;0.10;;;22.50;99.90;;;;;;5048464;28;20181;-80
2023/06/07 07:41:37;;;;;;;0.10;0.10;;;22.90;99.90;;;;;;5046039;28;20230;-80
2023/06/07 07:44:03;;;;;;;0.10;0.10;;;23.30;99.90;;;;;;5046008;28;20186;-80
2023/06/07 07:46:29;;;;;;;0.10;0.10;;;22.70;99.90;;;;;;5045880;28;20335;-80
2023/06/07 07:48:55;;;;;;;0.10;0.10;;;23.20;99.90;;;;;;5047135;28;20685;-80
2023/06/07 07:51:21;;;;;;;0.10;0.10;;;22.90;99.90;;;;;;5047117;28;20186;-80
2023/06/07 07:53:47;;;;;;;0.10;0.10;;;22.90;99.90;;;;;;5048127;28;20216;-81
2023/06/07 07:56:12;;;;;;;0.10;0.10;;;23.30;99.90;;;;;;5046720;28;20689;-81
2023/06/07 07:58:38;;;;;;;0.10;0.10;;;23.20;99.90;;;;;;5046803;28;20213;-80
2023/06/07 08:01:04;;;;;;;0.10;0.10;;;23.30;99.90;;;;;;5046515;28;20261;-81
2023/06/07 08:03:30;;;;;;;0.10;0.10;;;23.60;99.90;;;;;;5046197;28;20235;-81
2023/06/07 08:05:56;;;;;;;0.10;0.10;;;23.80;99.90;;;;;;5045571;28;20221;-81
2023/06/07 08:08:21;;;;;;;0.10;0.10;;;23.30;99.90;;;;;;5047412;28;20174;-81
2023/06/07 08:10:47;;;;;;;0.10;0.10;;;23.50;99.90;;;;;;5045985;28;20201;-80
2023/06/07 08:13:14;;;;;;;0.10;0.10;;;23.80;99.90;;;;;;5045461;28;20266;-81
2023/06/07 08:15:40;;;;;;;0.10;0.10;;;23.90;99.90;;;;;;5046926;28;20312;-81
2023/06/07 08:18:06;;;;;;;0.10;0.10;;;24.30;99.90;;;;;;5045449;28;20698;-81
2023/06/07 08:20:32;;;;;;;0.10;0.10;;;24.60;99.90;;;;;;5045192;28;20260;-81
2023/06/07 08:22:57;;;;;;;0.10;0.10;;;24.90;99.90;;;;;;5046390;28;20219;-81
2023/06/07 08:25:23;;;;;;;0.10;0.10;;;25.00;99.90;;;;;;5046567;28;20217;-81
2023/06/07 08:27:49;;;;;;;0.10;0.10;;;25.20;99.90;;;;;;5045470;28;20214;-81
2023/06/07 08:30:14;;;;;;;0.10;0.10;;;25.20;99.90;;;;;;5045912;28;20232;-81
2023/06/07 08:32:42;;;;;;;1.40;1.40;;;24.50;99.90;;;;;;5044924;28;20955;-81
2023/06/07 08:35:09;;;;;;;0.10;0.10;;;24.60;99.90;;;;;;5045191;28;20206;-81
2023/06/07 08:37:35;;;;;;;0.10;0.10;;;24.50;99.90;;;;;;5044461;28;20186;-81
2023/06/07 08:40:01;;;;;;;0.10;0.10;;;25.00;99.90;;;;;;5044966;28;20216;-81
2023/06/07 08:42:26;;;;;;;0.10;0.10;;;23.60;99.90;;;;;;5044390;28;20227;-81
2023/06/07 08:44:52;;;;;;;0.10;0.10;;;23.40;99.90;;;;;;5043886;28;20553;-81
2023/06/07 08:47:22;;;;;;;0.10;0.10;;;23.80;99.90;;;;;;5044591;28;20202;-81
2023/06/07 08:49:53;;;;;;;0.10;0.10;;;24.40;99.90;;;;;;5046243;28;20185;-80
2023/06/07 08:52:18;;;;;;;0.10;0.10;;;24.90;99.90;;;;;;5043490;28;20852;-81
2023/06/07 08:54:47;;;;;;;0.10;0.10;;;25.00;99.90;;;;;;5044177;28;20209;-81
2023/06/07 08:57:16;;;;;;;0.10;0.10;;;24.60;99.90;;;;;;5044872;28;20244;-81
2023/06/07 08:59:45;;;;;;;0.10;0.10;;;25.00;99.90;;;;;;5043529;28;20240;-81
2023/06/07 09:02:15;;;;;;;0.10;0.10;;;24.90;99.90;;;;;;5045564;28;20256;-81
2023/06/07 09:04:41;;;;;;;0.10;0.10;;;24.80;99.90;;;;;;5043940;28;20667;-81
2023/06/07 09:07:10;;;;;;;0.10;0.10;;;24.50;99.90;;;;;;5045691;28;20942;-81
2023/06/07 09:09:36;;;;;;;0.10;0.10;;;25.20;99.90;;;;;;5046620;28;20188;-81
2023/06/07 09:12:02;;;;;;;0.10;0.10;;;25.60;99.90;;;;;;5044561;28;20185;-81
2023/06/07 09:14:29;;;;;;;0.10;0.10;;;26.10;99.90;;;;;;5045114;28;20208;-81
2023/06/07 09:16:56;;;;;;;0.10;0.10;;;26.50;99.90;;;;;;5044876;28;20247;-81
2023/06/07 09:19:33;;;;;;;0.10;0.10;;;25.60;99.90;;;;;;5053255;28;20204;-81
2023/06/07 09:21:59;;;;;;;0.10;0.10;;;25.40;99.90;;;;;;5045025;28;20177;-81
2023/06/07 09:24:29;;;;;;;0.10;0.10;;;25.30;99.90;;;;;;5045565;28;20185;-81
2023/06/07 09:26:58;;;;;;;0.10;0.10;;;25.60;99.90;;;;;;5044355;28;20209;-81
2023/06/07 09:29:24;;;;;;;0.10;0.10;;;24.80;99.90;;;;;;5046314;28;20264;-81
2023/06/07 09:31:49;;;;;;;0.10;0.10;;;24.80;99.90;;;;;;5045440;28;20344;-81
2023/06/07 09:34:22;;;;;;;0.10;0.10;;;24.90;99.90;;;;;;5043185;28;20907;-81
2023/06/07 09:36:51;;;;;;;0.10;0.10;;;25.10;99.90;;;;;;5045360;28;20197;-81
2023/06/07 09:39:25;;;;;;;0.10;0.10;;;26.20;99.90;;;;;;5044198;28;20173;-80
2023/06/07 09:41:55;;;;;;;0.10;0.10;;;26.90;99.90;;;;;;5045468;28;20170;-81
2023/06/07 09:44:26;;;;;;;0.10;0.10;;;26.90;99.90;;;;;;5044185;28;20189;-81
2023/06/07 09:46:52;;;;;;;0.10;0.10;;;27.10;99.90;;;;;;5043959;28;20294;-81
2023/06/07 09:49:34;;;;;;;0.10;0.10;;;27.20;99.90;;;;;;5043859;28;20189;-81
2023/06/07 09:52:01;;;;;;;0.10;0.10;;;26.90;99.90;;;;;;5044348;28;20713;-81
2023/06/07 09:54:45;;;;;;;0.10;0.10;;;26.40;99.90;;;;;;5044896;28;20206;-81
2023/06/07 09:57:28;;;;;;;0.10;0.10;;;26.60;99.90;;;;;;5043323;28;20197;-81
2023/06/07 10:00:14;;;;;;;0.10;0.10;;;26.10;99.90;;;;;;5043911;28;20178;-81
2023/06/07 10:02:42;;;;;;;0.10;0.10;;;26.80;99.90;;;;;;5043986;28;20180;-81
2023/06/07 10:05:08;;;;;;;0.10;0.10;;;27.20;99.90;;;;;;5043716;28;20198;-81
2023/06/07 10:07:40;;;;;;;0.10;0.10;;;26.60;99.90;;;;;;5045035;28;20634;-80
2023/06/07 10:10:08;;;;;;;0.10;0.10;;;26.90;99.90;;;;;;5046017;28;20178;-81
2023/06/07 10:12:38;;;;;;;0.10;0.10;;;27.00;99.90;;;;;;5042812;28;20224;-81
2023/06/07 10:15:07;;;;;;;0.10;0.10;;;27.50;99.90;;;;;;5044547;28;20248;-81
2023/06/07 10:17:45;;;;;;;0.10;0.10;;;27.10;99.90;;;;;;5046331;28;20233;-81
2023/06/07 10:20:15;;;;;;;0.10;0.10;;;26.60;99.90;;;;;;5045007;28;20174;-81
2023/06/07 10:22:44;;;;;;;0.10;0.10;;;25.70;99.90;;;;;;5043586;28;20227;-81
2023/06/07 10:25:23;;;;;;;0.10;0.10;;;25.70;99.90;;;;;;5045577;28;20182;-81
2023/06/07 10:28:13;;;;;;;0.10;0.10;;;25.50;99.90;;;;;;5044709;28;20177;-81
2023/06/07 10:30:45;;;;;;;0.10;0.10;;;24.90;99.90;;;;;;5043806;28;20182;-81
2023/06/07 10:33:12;;;;;;;0.10;0.10;;;25.50;99.90;;;;;;5043736;28;20722;-81
2023/06/07 10:35:39;;;;;;;0.10;0.10;;;25.00;99.90;;;;;;5045347;28;20224;-81
2023/06/07 10:38:05;;;;;;;0.10;0.10;;;24.80;99.90;;;;;;5043527;28;20201;-81
2023/06/07 10:40:31;;;;;;;0.10;0.10;;;25.10;99.90;;;;;;5043104;28;21151;-81
2023/06/07 10:42:57;;;;;;;0.10;0.10;;;24.90;99.90;;;;;;5042404;28;20173;-81
2023/06/07 10:45:23;;;;;;;0.10;0.10;;;24.40;99.90;;;;;;5043138;28;20281;-81
2023/06/07 10:47:49;;;;;;;0.10;0.10;;;25.20;99.90;;;;;;5046661;28;20647;-81
2023/06/07 10:50:27;;;;;;;0.10;0.10;;;24.60;99.90;;;;;;5046845;28;20177;-81
2023/06/07 10:53:10;;;;;;;0.10;0.10;;;24.40;99.90;;;;;;5046265;28;21225;-81
2023/06/07 10:55:36;;;;;;;0.10;0.10;;;24.30;99.90;;;;;;5045557;28;20292;-81
2023/06/07 10:58:01;;;;;;;0.10;0.10;;;24.30;99.90;;;;;;5046768;28;20278;-80
2023/06/07 11:00:30;;;;;;;0.10;0.10;;;24.80;99.90;;;;;;5048243;28;20177;-81
2023/06/07 11:03:04;;;;;;;0.10;0.10;;;25.00;99.90;;;;;;5047880;28;20666;-81
2023/06/07 11:05:52;;;;;;;0.10;0.10;;;26.00;99.90;;;;;;5047937;28;20232;-81
2023/06/07 11:08:28;;;;;;;0.10;0.10;;;26.30;99.90;;;;;;5046950;28;20178;-81
2023/06/07 11:11:05;;;;;;;0.10;0.10;;;26.40;99.90;;;;;;5047980;28;20192;-81
2023/06/07 11:13:59;;;;;;;0.10;0.10;;;25.50;99.90;;;;;;5048074;28;20189;-81
2023/06/07 11:16:25;;;;;;;0.10;0.10;;;25.10;99.90;;;;;;5045871;28;20309;-81
2023/06/07 11:18:56;;;;;;;0.30;0.30;;;24.60;99.90;;;;;;5047857;28;20210;-81
2023/06/07 11:21:21;;;;;;;0.10;0.10;;;25.10;99.90;;;;;;5045943;28;20174;-81
2023/06/07 11:24:10;;;;;;;0.10;0.10;;;25.50;99.90;;;;;;5047754;28;20181;-81
2023/06/07 11:26:36;;;;;;;0.10;0.10;;;25.30;99.90;;;;;;5047618;28;20216;-81
2023/06/07 11:29:04;;;;;;;0.10;0.10;;;25.30;99.90;;;;;;5045613;28;20178;-81
2023/06/07 11:31:29;;;;;;;0.10;0.10;;;25.10;99.90;;;;;;5045734;28;20185;-81
2023/06/07 11:33:55;;;;;;;0.10;0.10;;;24.40;99.90;;;;;;5048265;28;20232;-81
2023/06/07 11:36:21;;;;;;;0.10;0.10;;;25.20;99.90;;;;;;5047720;28;20208;-81
2023/06/07 11:38:52;;;;;;;0.10;0.10;;;25.70;99.90;;;;;;5045849;28;20204;-81
2023/06/07 11:41:18;;;;;;;0.10;0.10;;;26.60;99.90;;;;;;5046592;28;20181;-81
2023/06/07 11:43:45;;;;;;;0.10;0.10;;;26.80;99.90;;;;;;5049029;28;20247;-81
2023/06/07 11:46:13;;;;;;;0.10;0.10;;;26.00;99.90;;;;;;5047455;28;20198;-81
2023/06/07 11:48:39;;;;;;;0.10;0.10;;;25.00;99.90;;;;;;5048770;28;20198;-81
2023/06/07 11:51:05;;;;;;;0.10;0.10;;;24.80;99.90;;;;;;5046256;28;20239;-81
2023/06/07 11:53:31;;;;;;;0.10;0.10;;;24.50;99.90;;;;;;5046730;28;20194;-80
2023/06/07 11:56:01;;;;;;;0.10;0.10;;;25.10;99.90;;;;;;5046432;28;20291;-81
2023/06/07 11:58:26;;;;;;;0.10;0.10;;;25.60;99.90;;;;;;5047387;28;20193;-81
2023/06/07 12:00:52;;;;;;;0.10;0.10;;;26.50;99.90;;;;;;5047393;28;20182;-81
2023/06/07 12:03:21;;;;;;;0.10;0.10;;;26.60;99.90;;;;;;5046058;28;20208;-82
2023/06/07 12:05:47;;;;;;;0.10;0.10;;;26.70;99.90;;;;;;5046398;28;20344;-81
2023/06/07 12:08:16;;;;;;;0.10;0.10;;;26.80;99.90;;;;;;5047960;28;20213;-81
2023/06/07 12:10:45;;;;;;;0.10;0.10;;;26.70;99.90;;;;;;5046293;28;20204;-81
2023/06/07 12:13:13;;;;;;;0.10;0.10;;;26.20;99.90;;;;;;5046344;28;20178;-81
2023/06/07 12:15:49;;;;;;;0.10;0.10;;;26.50;99.90;;;;;;5045799;28;20221;-81
2023/06/07 12:18:19;;;;;;;0.10;0.10;;;27.10;99.90;;;;;;5045964;28;20659;-81
2023/06/07 12:20:46;;;;;;;0.10;0.10;;;27.20;99.90;;;;;;5045711;28;20263;-81
2023/06/07 12:23:13;;;;;;;0.10;0.10;;;27.00;99.90;;;;;;5047450;28;20178;-81
2023/06/07 12:25:41;;;;;;;0.10;0.10;;;25.70;99.90;;;;;;5046437;28;20213;-81
2023/06/07 12:28:09;;;;;;;0.10;0.10;;;26.50;99.90;;;;;;5045979;28;20269;-81
2023/06/07 12:30:40;;;;;;;0.10;0.10;;;27.50;99.90;;;;;;5044639;28;20177;-81
2023/06/07 12:33:16;;;;;;;0.10;0.10;;;27.80;99.90;;;;;;5044446;28;20201;-81
2023/06/07 12:35:48;;;;;;;0.10;0.10;;;26.60;99.90;;;;;;5045887;28;20691;-81
2023/06/07 12:38:14;;;;;;;0.10;0.10;;;26.40;99.90;;;;;;5044616;28;20705;-80
2023/06/07 12:40:40;;;;;;;0.10;0.10;;;26.20;99.90;;;;;;5045978;28;20190;-80
2023/06/07 12:43:06;;;;;;;0.10;0.10;;;25.60;99.90;;;;;;5045166;28;20177;-80
2023/06/07 12:45:31;;;;;;;0.10;0.10;;;25.40;99.90;;;;;;5044348;28;20210;-80
2023/06/07 12:47:57;;;;;;;0.20;0.20;;;25.20;99.90;;;;;;5043886;28;20174;-80
2023/06/07 12:50:22;;;;;;;0.10;0.10;;;26.10;99.90;;;;;;5044308;28;20181;-80